sensor_id;sensor_type;location;lat;lon;timestamp;temperature;humidity
68251;DHT22;55066;51.560;4.642;2023-03-23T00:00:07;12.05;98.85
68251;DHT22;55066;51.560;4.642;2023-03-23T00:02:36;12.09;98.72
68251;DHT22;55066;51.560;4.642;2023-03-23T00:05:04;12.06;99.03
68251;DHT22;55066;51.560;4.642;2023-03-23T00:07:33;12.03;99.38
68251;DHT22;55066;51.560;4.642;2023-03-23T00:09:59;11.99;99.15
68251;DHT22;55066;51.560;4.642;2023-03-23T00:12:29;11.95;99.81
68251;DHT22;55066;51.560;4.642;2023-03-23T00:15:04;11.95;99.99
68251;DHT22;55066;51.560;4.642;2023-03-23T00:17:32;11.89;99.99
68251;DHT22;55066;51.560;4.642;2023-03-23T00:20:02;11.98;99.65
68251;DHT22;55066;51.560;4.642;2023-03-23T00:22:30;11.99;99.51
68251;DHT22;55066;51.560;4.642;2023-03-23T00:24:56;11.96;99.44
68251;DHT22;55066;51.560;4.642;2023-03-23T00:27:24;11.90;99.82
68251;DHT22;55066;51.560;4.642;2023-03-23T00:29:50;11.89;99.83
68251;DHT22;55066;51.560;4.642;2023-03-23T00:32:24;11.85;99.85
68251;DHT22;55066;51.560;4.642;2023-03-23T00:34:57;11.88;99.87
68251;DHT22;55066;51.560;4.642;2023-03-23T00:37:26;11.89;99.76
68251;DHT22;55066;51.560;4.642;2023-03-23T00:39:52;11.85;99.90
68251;DHT22;55066;51.560;4.642;2023-03-23T00:42:22;11.81;99.99
68251;DHT22;55066;51.560;4.642;2023-03-23T00:44:50;11.75;99.99
68251;DHT22;55066;51.560;4.642;2023-03-23T00:47:16;11.75;99.99
68251;DHT22;55066;51.560;4.642;2023-03-23T00:49:42;11.83;99.93
68251;DHT22;55066;51.560;4.642;2023-03-23T00:52:09;11.96;99.54
68251;DHT22;55066;51.560;4.642;2023-03-23T00:54:35;11.95;99.44
68251;DHT22;55066;51.560;4.642;2023-03-23T00:57:03;11.96;99.52
68251;DHT22;55066;51.560;4.642;2023-03-23T00:59:29;11.96;99.43
68251;DHT22;55066;51.560;4.642;2023-03-23T01:01:55;11.92;99.78
68251;DHT22;55066;51.560;4.642;2023-03-23T01:04:20;11.95;99.56
68251;DHT22;55066;51.560;4.642;2023-03-23T01:06:49;11.93;99.71
68251;DHT22;55066;51.560;4.642;2023-03-23T01:09:16;11.90;99.71
68251;DHT22;55066;51.560;4.642;2023-03-23T01:11:50;11.92;99.82
68251;DHT22;55066;51.560;4.642;2023-03-23T01:14:18;11.99;99.73
68251;DHT22;55066;51.560;4.642;2023-03-23T01:16:47;12.02;99.44
68251;DHT22;55066;51.560;4.642;2023-03-23T01:19:14;11.99;99.58
68251;DHT22;55066;51.560;4.642;2023-03-23T01:21:40;12.00;99.66
68251;DHT22;55066;51.560;4.642;2023-03-23T01:24:06;12.06;99.50
68251;DHT22;55066;51.560;4.642;2023-03-23T01:26:32;12.05;99.65
68251;DHT22;55066;51.560;4.642;2023-03-23T01:28:58;11.99;99.52
68251;DHT22;55066;51.560;4.642;2023-03-23T01:31:26;12.02;99.52
68251;DHT22;55066;51.560;4.642;2023-03-23T01:33:52;12.22;98.80
68251;DHT22;55066;51.560;4.642;2023-03-23T01:36:27;12.19;98.63
68251;DHT22;55066;51.560;4.642;2023-03-23T01:38:56;12.16;98.77
68251;DHT22;55066;51.560;4.642;2023-03-23T01:41:24;12.23;98.96
68251;DHT22;55066;51.560;4.642;2023-03-23T01:44:01;12.22;98.79
68251;DHT22;55066;51.560;4.642;2023-03-23T01:46:39;12.27;98.49
68251;DHT22;55066;51.560;4.642;2023-03-23T01:49:19;12.15;99.05
68251;DHT22;55066;51.560;4.642;2023-03-23T01:51:51;12.15;98.93
68251;DHT22;55066;51.560;4.642;2023-03-23T01:54:20;12.24;98.33
68251;DHT22;55066;51.560;4.642;2023-03-23T01:56:55;12.22;98.60
68251;DHT22;55066;51.560;4.642;2023-03-23T01:59:25;12.13;99.10
68251;DHT22;55066;51.560;4.642;2023-03-23T02:02:12;12.13;98.65
68251;DHT22;55066;51.560;4.642;2023-03-23T02:04:39;12.12;98.60
68251;DHT22;55066;51.560;4.642;2023-03-23T02:07:09;12.15;98.60
68251;DHT22;55066;51.560;4.642;2023-03-23T02:09:35;12.20;98.66
68251;DHT22;55066;51.560;4.642;2023-03-23T02:12:00;12.16;98.92
68251;DHT22;55066;51.560;4.642;2023-03-23T02:14:28;12.15;99.15
68251;DHT22;55066;51.560;4.642;2023-03-23T02:17:22;12.17;98.75
68251;DHT22;55066;51.560;4.642;2023-03-23T02:23:14;12.07;99.15
68251;DHT22;55066;51.560;4.642;2023-03-23T02:28:47;12.16;98.78
68251;DHT22;55066;51.560;4.642;2023-03-23T02:34:05;12.22;98.64
68251;DHT22;55066;51.560;4.642;2023-03-23T02:39:24;12.22;98.81
68251;DHT22;55066;51.560;4.642;2023-03-23T02:41:56;12.22;99.08
68251;DHT22;55066;51.560;4.642;2023-03-23T02:44:26;12.19;99.26
68251;DHT22;55066;51.560;4.642;2023-03-23T02:46:57;12.26;98.57
68251;DHT22;55066;51.560;4.642;2023-03-23T02:49:27;12.29;98.37
68251;DHT22;55066;51.560;4.642;2023-03-23T02:51:56;12.30;98.38
68251;DHT22;55066;51.560;4.642;2023-03-23T02:54:23;12.26;98.68
68251;DHT22;55066;51.560;4.642;2023-03-23T02:56:52;12.38;97.52
68251;DHT22;55066;51.560;4.642;2023-03-23T02:59:23;12.34;97.69
68251;DHT22;55066;51.560;4.642;2023-03-23T03:01:57;12.33;97.73
68251;DHT22;55066;51.560;4.642;2023-03-23T03:04:26;12.32;97.68
68251;DHT22;55066;51.560;4.642;2023-03-23T03:08:15;12.29;97.73
68251;DHT22;55066;51.560;4.642;2023-03-23T03:10:24;12.33;97.38
68251;DHT22;55066;51.560;4.642;2023-03-23T03:12:57;12.24;97.68
68251;DHT22;55066;51.560;4.642;2023-03-23T03:15:37;12.38;97.20
68251;DHT22;55066;51.560;4.642;2023-03-23T03:18:11;12.37;97.04
68251;DHT22;55066;51.560;4.642;2023-03-23T03:20:55;12.32;97.19
68251;DHT22;55066;51.560;4.642;2023-03-23T03:23:25;12.33;97.23
68251;DHT22;55066;51.560;4.642;2023-03-23T03:25:55;12.36;97.08
68251;DHT22;55066;51.560;4.642;2023-03-23T03:28:34;12.30;97.26
68251;DHT22;55066;51.560;4.642;2023-03-23T03:31:02;12.23;97.54
68251;DHT22;55066;51.560;4.642;2023-03-23T03:33:29;12.26;97.11
68251;DHT22;55066;51.560;4.642;2023-03-23T03:36:00;12.32;96.65
68251;DHT22;55066;51.560;4.642;2023-03-23T03:38:26;12.29;96.74
68251;DHT22;55066;51.560;4.642;2023-03-23T03:40:54;12.27;96.87
68251;DHT22;55066;51.560;4.642;2023-03-23T03:43:19;12.26;96.66
68251;DHT22;55066;51.560;4.642;2023-03-23T03:45:45;12.29;96.51
68251;DHT22;55066;51.560;4.642;2023-03-23T03:48:11;12.32;96.12
68251;DHT22;55066;51.560;4.642;2023-03-23T03:50:38;12.34;95.83
68251;DHT22;55066;51.560;4.642;2023-03-23T03:53:05;12.32;95.93
68251;DHT22;55066;51.560;4.642;2023-03-23T03:55:31;12.30;96.00
68251;DHT22;55066;51.560;4.642;2023-03-23T03:58:02;12.29;95.81
68251;DHT22;55066;51.560;4.642;2023-03-23T04:00:52;12.29;95.95
68251;DHT22;55066;51.560;4.642;2023-03-23T04:03:20;12.32;95.88
68251;DHT22;55066;51.560;4.642;2023-03-23T04:06:00;12.34;95.56
68251;DHT22;55066;51.560;4.642;2023-03-23T04:08:25;12.32;95.46
68251;DHT22;55066;51.560;4.642;2023-03-23T04:10:52;12.29;95.56
68251;DHT22;55066;51.560;4.642;2023-03-23T04:13:19;12.27;95.70
68251;DHT22;55066;51.560;4.642;2023-03-23T04:15:59;12.23;95.94
68251;DHT22;55066;51.560;4.642;2023-03-23T04:18:26;12.29;95.80
68251;DHT22;55066;51.560;4.642;2023-03-23T04:20:52;12.24;96.02
68251;DHT22;55066;51.560;4.642;2023-03-23T04:23:20;12.19;96.23
68251;DHT22;55066;51.560;4.642;2023-03-23T04:25:49;12.17;96.31
68251;DHT22;55066;51.560;4.642;2023-03-23T04:28:16;12.17;96.45
68251;DHT22;55066;51.560;4.642;2023-03-23T04:31:00;12.13;96.70
68251;DHT22;55066;51.560;4.642;2023-03-23T04:33:28;12.10;96.64
68251;DHT22;55066;51.560;4.642;2023-03-23T04:35:58;12.16;96.36
68251;DHT22;55066;51.560;4.642;2023-03-23T04:38:36;12.17;96.52
68251;DHT22;55066;51.560;4.642;2023-03-23T04:41:09;12.22;96.23
68251;DHT22;55066;51.560;4.642;2023-03-23T04:43:55;12.19;96.38
68251;DHT22;55066;51.560;4.642;2023-03-23T04:46:29;12.13;96.57
68251;DHT22;55066;51.560;4.642;2023-03-23T04:48:58;12.10;96.79
68251;DHT22;55066;51.560;4.642;2023-03-23T04:51:31;12.13;96.59
68251;DHT22;55066;51.560;4.642;2023-03-23T04:54:08;12.07;96.90
68251;DHT22;55066;51.560;4.642;2023-03-23T04:56:35;12.09;96.87
68251;DHT22;55066;51.560;4.642;2023-03-23T04:59:07;12.03;97.08
68251;DHT22;55066;51.560;4.642;2023-03-23T05:01:41;12.07;96.98
68251;DHT22;55066;51.560;4.642;2023-03-23T05:04:20;12.05;97.16
68251;DHT22;55066;51.560;4.642;2023-03-23T05:07:06;11.95;97.73
68251;DHT22;55066;51.560;4.642;2023-03-23T05:09:37;11.98;97.53
68251;DHT22;55066;51.560;4.642;2023-03-23T05:12:07;11.96;97.70
68251;DHT22;55066;51.560;4.642;2023-03-23T05:14:42;11.96;97.71
68251;DHT22;55066;51.560;4.642;2023-03-23T05:17:10;11.95;97.63
68251;DHT22;55066;51.560;4.642;2023-03-23T05:19:37;11.96;97.66
68251;DHT22;55066;51.560;4.642;2023-03-23T05:22:14;11.99;97.63
68251;DHT22;55066;51.560;4.642;2023-03-23T05:24:45;11.96;97.73
68251;DHT22;55066;51.560;4.642;2023-03-23T05:27:20;12.00;97.47
68251;DHT22;55066;51.560;4.642;2023-03-23T05:29:48;11.96;97.52
68251;DHT22;55066;51.560;4.642;2023-03-23T05:32:15;11.95;97.76
68251;DHT22;55066;51.560;4.642;2023-03-23T05:34:45;12.00;97.44
68251;DHT22;55066;51.560;4.642;2023-03-23T05:37:12;11.99;97.35
68251;DHT22;55066;51.560;4.642;2023-03-23T05:39:47;12.02;97.57
68251;DHT22;55066;51.560;4.642;2023-03-23T05:42:35;12.03;97.34
68251;DHT22;55066;51.560;4.642;2023-03-23T05:45:14;12.02;97.42
68251;DHT22;55066;51.560;4.642;2023-03-23T05:47:41;12.02;97.44
68251;DHT22;55066;51.560;4.642;2023-03-23T05:50:14;12.07;97.25
68251;DHT22;55066;51.560;4.642;2023-03-23T05:52:41;12.07;97.21
68251;DHT22;55066;51.560;4.642;2023-03-23T05:55:10;11.98;97.99
68251;DHT22;55066;51.560;4.642;2023-03-23T05:57:39;11.95;98.73
68251;DHT22;55066;51.560;4.642;2023-03-23T06:00:24;11.77;99.88
68251;DHT22;55066;51.560;4.642;2023-03-23T06:02:58;11.64;99.99
68251;DHT22;55066;51.560;4.642;2023-03-23T06:05:33;11.65;99.99
68251;DHT22;55066;51.560;4.642;2023-03-23T06:07:59;11.58;99.99
68251;DHT22;55066;51.560;4.642;2023-03-23T06:10:25;11.51;99.99
68251;DHT22;55066;51.560;4.642;2023-03-23T06:12:59;11.28;99.99
68251;DHT22;55066;51.560;4.642;2023-03-23T06:15:29;11.26;99.99
68251;DHT22;55066;51.560;4.642;2023-03-23T06:18:12;11.10;99.99
68251;DHT22;55066;51.560;4.642;2023-03-23T06:21:11;11.00;99.99
68251;DHT22;55066;51.560;4.642;2023-03-23T06:23:48;10.97;99.99
68251;DHT22;55066;51.560;4.642;2023-03-23T06:26:18;11.02;99.99
68251;DHT22;55066;51.560;4.642;2023-03-23T06:28:51;10.89;99.99
68251;DHT22;55066;51.560;4.642;2023-03-23T06:31:16;10.85;99.99
68251;DHT22;55066;51.560;4.642;2023-03-23T06:33:44;10.93;99.99
68251;DHT22;55066;51.560;4.642;2023-03-23T06:36:25;11.00;99.99
68251;DHT22;55066;51.560;4.642;2023-03-23T06:39:21;10.91;99.99
68251;DHT22;55066;51.560;4.642;2023-03-23T06:41:58;10.85;99.99
68251;DHT22;55066;51.560;4.642;2023-03-23T06:44:30;10.95;99.99
68251;DHT22;55066;51.560;4.642;2023-03-23T06:46:55;10.93;99.99
68251;DHT22;55066;51.560;4.642;2023-03-23T06:49:27;10.80;99.99
68251;DHT22;55066;51.560;4.642;2023-03-23T06:52:02;10.71;99.99
68251;DHT22;55066;51.560;4.642;2023-03-23T06:54:29;10.75;99.99
68251;DHT22;55066;51.560;4.642;2023-03-23T06:56:57;10.79;99.99
68251;DHT22;55066;51.560;4.642;2023-03-23T06:59:23;10.82;99.99
68251;DHT22;55066;51.560;4.642;2023-03-23T07:01:49;10.89;99.99
68251;DHT22;55066;51.560;4.642;2023-03-23T07:04:15;10.91;99.99
68251;DHT22;55066;51.560;4.642;2023-03-23T07:06:59;10.85;99.99
68251;DHT22;55066;51.560;4.642;2023-03-23T07:09:26;10.82;99.99
68251;DHT22;55066;51.560;4.642;2023-03-23T07:11:52;10.79;99.99
68251;DHT22;55066;51.560;4.642;2023-03-23T07:14:28;10.76;99.99
68251;DHT22;55066;51.560;4.642;2023-03-23T07:16:53;10.71;99.99
68251;DHT22;55066;51.560;4.642;2023-03-23T07:19:20;10.64;99.99
68251;DHT22;55066;51.560;4.642;2023-03-23T07:21:46;10.64;99.99
68251;DHT22;55066;51.560;4.642;2023-03-23T07:24:12;10.58;99.99
68251;DHT22;55066;51.560;4.642;2023-03-23T07:27:00;10.51;99.99
68251;DHT22;55066;51.560;4.642;2023-03-23T07:29:29;10.48;99.99
68251;DHT22;55066;51.560;4.642;2023-03-23T07:32:05;10.51;99.99
68251;DHT22;55066;51.560;4.642;2023-03-23T07:34:32;10.55;99.99
68251;DHT22;55066;51.560;4.642;2023-03-23T07:37:10;10.55;99.99
68251;DHT22;55066;51.560;4.642;2023-03-23T07:39:36;10.57;99.99
68251;DHT22;55066;51.560;4.642;2023-03-23T07:42:02;10.58;99.99
68251;DHT22;55066;51.560;4.642;2023-03-23T07:44:41;10.58;99.99
68251;DHT22;55066;51.560;4.642;2023-03-23T07:47:09;10.64;99.99
68251;DHT22;55066;51.560;4.642;2023-03-23T07:49:36;10.69;99.99
68251;DHT22;55066;51.560;4.642;2023-03-23T07:52:31;10.66;99.99
68251;DHT22;55066;51.560;4.642;2023-03-23T07:54:58;10.57;99.99
68251;DHT22;55066;51.560;4.642;2023-03-23T07:57:39;10.58;99.99
68251;DHT22;55066;51.560;4.642;2023-03-23T08:00:05;10.62;99.99
68251;DHT22;55066;51.560;4.642;2023-03-23T08:02:56;10.69;99.99
68251;DHT22;55066;51.560;4.642;2023-03-23T08:05:42;10.73;99.99
68251;DHT22;55066;51.560;4.642;2023-03-23T08:08:39;10.85;99.99
68251;DHT22;55066;51.560;4.642;2023-03-23T08:11:25;10.89;99.99
68251;DHT22;55066;51.560;4.642;2023-03-23T08:14:10;10.97;99.99
68251;DHT22;55066;51.560;4.642;2023-03-23T08:16:36;11.03;99.99
68251;DHT22;55066;51.560;4.642;2023-03-23T08:19:28;11.10;99.99
68251;DHT22;55066;51.560;4.642;2023-03-23T08:22:19;11.16;99.99
68251;DHT22;55066;51.560;4.642;2023-03-23T08:25:06;11.04;99.99
68251;DHT22;55066;51.560;4.642;2023-03-23T08:27:55;11.04;99.99
68251;DHT22;55066;51.560;4.642;2023-03-23T08:30:50;11.20;99.99
68251;DHT22;55066;51.560;4.642;2023-03-23T08:33:23;11.17;99.99
68251;DHT22;55066;51.560;4.642;2023-03-23T08:36:20;10.99;99.99
68251;DHT22;55066;51.560;4.642;2023-03-23T08:39:01;10.91;99.99
68251;DHT22;55066;51.560;4.642;2023-03-23T08:41:49;10.69;99.99
68251;DHT22;55066;51.560;4.642;2023-03-23T08:44:37;10.68;99.99
68251;DHT22;55066;51.560;4.642;2023-03-23T08:47:27;10.79;99.99
68251;DHT22;55066;51.560;4.642;2023-03-23T08:50:15;11.04;99.99
68251;DHT22;55066;51.560;4.642;2023-03-23T08:53:15;11.19;99.99
68251;DHT22;55066;51.560;4.642;2023-03-23T08:55:48;11.33;99.99
68251;DHT22;55066;51.560;4.642;2023-03-23T08:58:46;11.45;99.99
68251;DHT22;55066;51.560;4.642;2023-03-23T09:01:30;11.62;99.99
68251;DHT22;55066;51.560;4.642;2023-03-23T09:04:18;11.74;99.99
68251;DHT22;55066;51.560;4.642;2023-03-23T09:06:52;11.78;99.99
68251;DHT22;55066;51.560;4.642;2023-03-23T09:09:18;11.88;99.98
68251;DHT22;55066;51.560;4.642;2023-03-23T09:11:43;11.95;99.21
68251;DHT22;55066;51.560;4.642;2023-03-23T09:14:11;12.16;99.78
68251;DHT22;55066;51.560;4.642;2023-03-23T09:16:37;12.24;98.64
68251;DHT22;55066;51.560;4.642;2023-03-23T09:19:03;12.32;98.41
68251;DHT22;55066;51.560;4.642;2023-03-23T09:21:29;12.37;97.44
68251;DHT22;55066;51.560;4.642;2023-03-23T09:23:55;12.54;96.96
68251;DHT22;55066;51.560;4.642;2023-03-23T09:26:25;12.58;96.47
68251;DHT22;55066;51.560;4.642;2023-03-23T09:28:50;12.69;96.35
68251;DHT22;55066;51.560;4.642;2023-03-23T09:31:17;12.82;96.06
68251;DHT22;55066;51.560;4.642;2023-03-23T09:33:47;12.84;95.27
68251;DHT22;55066;51.560;4.642;2023-03-23T09:36:21;13.02;95.52
68251;DHT22;55066;51.560;4.642;2023-03-23T09:38:48;13.26;94.79
68251;DHT22;55066;51.560;4.642;2023-03-23T09:46:49;13.39;94.05
68251;DHT22;55066;51.560;4.642;2023-03-23T09:49:33;13.46;93.04
68251;DHT22;55066;51.560;4.642;2023-03-23T09:52:19;13.85;92.87
68251;DHT22;55066;51.560;4.642;2023-03-23T09:54:53;14.09;91.75
68251;DHT22;55066;51.560;4.642;2023-03-23T10:00:03;13.94;93.62
68251;DHT22;55066;51.560;4.642;2023-03-23T10:02:49;13.63;92.49
68251;DHT22;55066;51.560;4.642;2023-03-23T10:05:29;13.95;91.96
68251;DHT22;55066;51.560;4.642;2023-03-23T10:07:56;14.06;92.20
68251;DHT22;55066;51.560;4.642;2023-03-23T10:10:29;14.29;92.10
68251;DHT22;55066;51.560;4.642;2023-03-23T10:13:31;14.43;90.35
68251;DHT22;55066;51.560;4.642;2023-03-23T10:15:58;14.49;90.39
68251;DHT22;55066;51.560;4.642;2023-03-23T10:18:37;15.18;89.20
68251;DHT22;55066;51.560;4.642;2023-03-23T10:21:05;15.12;88.80
68251;DHT22;55066;51.560;4.642;2023-03-23T10:29:21;15.09;87.45
68251;DHT22;55066;51.560;4.642;2023-03-23T10:32:11;15.14;87.55
68251;DHT22;55066;51.560;4.642;2023-03-23T10:34:49;15.04;89.02
68251;DHT22;55066;51.560;4.642;2023-03-23T10:37:53;14.95;89.23
68251;DHT22;55066;51.560;4.642;2023-03-23T10:40:23;15.11;87.90
68251;DHT22;55066;51.560;4.642;2023-03-23T10:42:52;15.22;87.35
68251;DHT22;55066;51.560;4.642;2023-03-23T10:45:26;15.31;89.13
68251;DHT22;55066;51.560;4.642;2023-03-23T10:48:35;15.02;90.28
68251;DHT22;55066;51.560;4.642;2023-03-23T10:51:04;15.36;90.22
68251;DHT22;55066;51.560;4.642;2023-03-23T10:53:33;15.43;87.72
68251;DHT22;55066;51.560;4.642;2023-03-23T10:56:00;15.59;86.25
68251;DHT22;55066;51.560;4.642;2023-03-23T10:58:32;15.32;86.14
68251;DHT22;55066;51.560;4.642;2023-03-23T11:00:59;15.15;89.00
68251;DHT22;55066;51.560;4.642;2023-03-23T11:03:41;15.33;88.71
68251;DHT22;55066;51.560;4.642;2023-03-23T11:06:12;15.77;87.47
68251;DHT22;55066;51.560;4.642;2023-03-23T11:08:55;15.73;85.40
68251;DHT22;55066;51.560;4.642;2023-03-23T11:11:30;15.53;86.54
68251;DHT22;55066;51.560;4.642;2023-03-23T11:17:03;15.61;85.92
68251;DHT22;55066;51.560;4.642;2023-03-23T11:19:31;15.54;85.04
68251;DHT22;55066;51.560;4.642;2023-03-23T11:24:42;15.04;85.98
68251;DHT22;55066;51.560;4.642;2023-03-23T11:27:09;14.87;86.34
68251;DHT22;55066;51.560;4.642;2023-03-23T11:29:59;14.83;89.21
68251;DHT22;55066;51.560;4.642;2023-03-23T11:32:28;14.94;86.76
68251;DHT22;55066;51.560;4.642;2023-03-23T11:34:59;15.06;87.09
68251;DHT22;55066;51.560;4.642;2023-03-23T11:40:00;14.80;88.29
68251;DHT22;55066;51.560;4.642;2023-03-23T11:42:42;14.46;92.76
68251;DHT22;55066;51.560;4.642;2023-03-23T11:45:30;14.13;96.60
68251;DHT22;55066;51.560;4.642;2023-03-23T11:48:34;13.22;99.99
68251;DHT22;55066;51.560;4.642;2023-03-23T11:51:19;13.51;99.99
68251;DHT22;55066;51.560;4.642;2023-03-23T11:53:57;13.58;99.99
68251;DHT22;55066;51.560;4.642;2023-03-23T11:56:35;13.44;99.99
68251;DHT22;55066;51.560;4.642;2023-03-23T11:59:02;13.33;99.99
68251;DHT22;55066;51.560;4.642;2023-03-23T12:12:08;14.16;99.99
68251;DHT22;55066;51.560;4.642;2023-03-23T12:14:56;13.95;99.86
68251;DHT22;55066;51.560;4.642;2023-03-23T12:26:19;14.68;95.24
68251;DHT22;55066;51.560;4.642;2023-03-23T12:35:42;14.32;91.07
68251;DHT22;55066;51.560;4.642;2023-03-23T12:38:22;14.28;92.70
68251;DHT22;55066;51.560;4.642;2023-03-23T12:44:12;14.19;90.99
68251;DHT22;55066;51.560;4.642;2023-03-23T12:49:36;14.57;91.57
68251;DHT22;55066;51.560;4.642;2023-03-23T12:54:46;14.25;91.22
68251;DHT22;55066;51.560;4.642;2023-03-23T12:57:26;14.11;92.78
68251;DHT22;55066;51.560;4.642;2023-03-23T13:02:40;13.71;96.45
68251;DHT22;55066;51.560;4.642;2023-03-23T13:05:08;13.65;96.25
68251;DHT22;55066;51.560;4.642;2023-03-23T13:07:41;13.58;96.79
68251;DHT22;55066;51.560;4.642;2023-03-23T13:10:19;13.67;95.28
68251;DHT22;55066;51.560;4.642;2023-03-23T13:12:47;14.23;94.05
68251;DHT22;55066;51.560;4.642;2023-03-23T13:15:38;14.73;93.67
68251;DHT22;55066;51.560;4.642;2023-03-23T13:21:20;14.83;91.17
68251;DHT22;55066;51.560;4.642;2023-03-23T13:23:54;14.80;93.51
68251;DHT22;55066;51.560;4.642;2023-03-23T13:26:22;14.88;91.14
68251;DHT22;55066;51.560;4.642;2023-03-23T13:29:22;14.98;90.48
68251;DHT22;55066;51.560;4.642;2023-03-23T13:32:10;15.42;91.30
68251;DHT22;55066;51.560;4.642;2023-03-23T13:34:36;15.50;90.40
68251;DHT22;55066;51.560;4.642;2023-03-23T13:37:10;15.35;91.19
68251;DHT22;55066;51.560;4.642;2023-03-23T13:39:49;15.53;93.39
68251;DHT22;55066;51.560;4.642;2023-03-23T13:49:58;15.69;90.65
68251;DHT22;55066;51.560;4.642;2023-03-23T14:10:58;16.33;88.43
68251;DHT22;55066;51.560;4.642;2023-03-23T14:14:01;16.55;87.57
68251;DHT22;55066;51.560;4.642;2023-03-23T14:16:42;16.66;86.71
68251;DHT22;55066;51.560;4.642;2023-03-23T14:21:50;17.27;84.41
68251;DHT22;55066;51.560;4.642;2023-03-23T14:24:20;17.25;84.70
68251;DHT22;55066;51.560;4.642;2023-03-23T14:26:48;18.38;81.48
68251;DHT22;55066;51.560;4.642;2023-03-23T14:29:19;19.04;79.30
68251;DHT22;55066;51.560;4.642;2023-03-23T14:31:50;18.87;78.88
68251;DHT22;55066;51.560;4.642;2023-03-23T14:34:19;17.46;82.47
68251;DHT22;55066;51.560;4.642;2023-03-23T14:36:46;16.48;87.93
68251;DHT22;55066;51.560;4.642;2023-03-23T14:39:21;16.41;86.24
68251;DHT22;55066;51.560;4.642;2023-03-23T14:41:48;16.28;86.63
68251;DHT22;55066;51.560;4.642;2023-03-23T14:44:18;16.32;86.71
68251;DHT22;55066;51.560;4.642;2023-03-23T14:46:46;16.30;89.40
68251;DHT22;55066;51.560;4.642;2023-03-23T14:49:18;16.28;87.27
68251;DHT22;55066;51.560;4.642;2023-03-23T14:51:50;17.01;88.21
68251;DHT22;55066;51.560;4.642;2023-03-23T14:54:23;18.08;85.94
68251;DHT22;55066;51.560;4.642;2023-03-23T14:56:49;17.98;85.51
68251;DHT22;55066;51.560;4.642;2023-03-23T14:59:18;17.75;83.11
68251;DHT22;55066;51.560;4.642;2023-03-23T15:01:46;17.62;83.74
68251;DHT22;55066;51.560;4.642;2023-03-23T15:04:23;17.67;84.10
68251;DHT22;55066;51.560;4.642;2023-03-23T15:07:03;17.04;84.64
68251;DHT22;55066;51.560;4.642;2023-03-23T15:09:30;16.64;86.12
68251;DHT22;55066;51.560;4.642;2023-03-23T15:12:03;16.59;85.95
68251;DHT22;55066;51.560;4.642;2023-03-23T15:14:32;16.57;86.58
68251;DHT22;55066;51.560;4.642;2023-03-23T15:17:02;16.91;86.71
68251;DHT22;55066;51.560;4.642;2023-03-23T15:19:38;17.69;83.90
68251;DHT22;55066;51.560;4.642;2023-03-23T15:22:27;16.64;83.00
68251;DHT22;55066;51.560;4.642;2023-03-23T15:25:17;16.77;83.20
68251;DHT22;55066;51.560;4.642;2023-03-23T15:27:53;17.67;81.33
68251;DHT22;55066;51.560;4.642;2023-03-23T15:30:30;17.35;79.38
68251;DHT22;55066;51.560;4.642;2023-03-23T15:33:08;17.67;82.41
68251;DHT22;55066;51.560;4.642;2023-03-23T15:35:38;17.31;81.44
68251;DHT22;55066;51.560;4.642;2023-03-23T15:38:24;17.32;82.18
68251;DHT22;55066;51.560;4.642;2023-03-23T15:40:52;17.83;80.67
68251;DHT22;55066;51.560;4.642;2023-03-23T15:43:33;16.93;81.33
68251;DHT22;55066;51.560;4.642;2023-03-23T15:46:32;17.03;81.78
68251;DHT22;55066;51.560;4.642;2023-03-23T15:49:06;17.01;80.16
68251;DHT22;55066;51.560;4.642;2023-03-23T15:51:32;16.77;83.09
68251;DHT22;55066;51.560;4.642;2023-03-23T15:53:59;16.39;82.00
68251;DHT22;55066;51.560;4.642;2023-03-23T15:56:29;16.62;83.43
68251;DHT22;55066;51.560;4.642;2023-03-23T15:58:57;16.90;80.57
68251;DHT22;55066;51.560;4.642;2023-03-23T16:01:27;16.63;82.38
68251;DHT22;55066;51.560;4.642;2023-03-23T16:03:57;16.36;83.98
68251;DHT22;55066;51.560;4.642;2023-03-23T16:06:25;16.18;83.71
68251;DHT22;55066;51.560;4.642;2023-03-23T16:08:53;15.91;85.12
68251;DHT22;55066;51.560;4.642;2023-03-23T16:11:20;15.87;86.13
68251;DHT22;55066;51.560;4.642;2023-03-23T16:13:45;15.71;85.84
68251;DHT22;55066;51.560;4.642;2023-03-23T16:16:17;15.78;86.13
68251;DHT22;55066;51.560;4.642;2023-03-23T16:18:44;15.73;85.54
68251;DHT22;55066;51.560;4.642;2023-03-23T16:21:09;15.66;85.03
68251;DHT22;55066;51.560;4.642;2023-03-23T16:23:35;15.87;86.63
68251;DHT22;55066;51.560;4.642;2023-03-23T16:26:01;15.71;85.92
68251;DHT22;55066;51.560;4.642;2023-03-23T16:28:26;15.69;87.81
68251;DHT22;55066;51.560;4.642;2023-03-23T16:30:53;15.61;87.19
68251;DHT22;55066;51.560;4.642;2023-03-23T16:33:18;15.49;87.11
68251;DHT22;55066;51.560;4.642;2023-03-23T16:35:44;15.18;87.96
68251;DHT22;55066;51.560;4.642;2023-03-23T16:38:12;15.11;90.20
68251;DHT22;55066;51.560;4.642;2023-03-23T16:40:39;15.05;88.82
68251;DHT22;55066;51.560;4.642;2023-03-23T16:43:05;14.95;89.01
68251;DHT22;55066;51.560;4.642;2023-03-23T16:45:32;14.98;89.13
68251;DHT22;55066;51.560;4.642;2023-03-23T16:47:58;14.95;91.09
68251;DHT22;55066;51.560;4.642;2023-03-23T16:50:27;14.87;90.75
68251;DHT22;55066;51.560;4.642;2023-03-23T16:52:54;14.87;89.89
68251;DHT22;55066;51.560;4.642;2023-03-23T16:55:20;14.74;90.35
68251;DHT22;55066;51.560;4.642;2023-03-23T16:57:46;14.88;91.25
68251;DHT22;55066;51.560;4.642;2023-03-23T17:00:15;14.73;90.69
68251;DHT22;55066;51.560;4.642;2023-03-23T17:02:47;14.67;90.09
68251;DHT22;55066;51.560;4.642;2023-03-23T17:05:20;14.68;90.82
68251;DHT22;55066;51.560;4.642;2023-03-23T17:07:47;14.70;92.34
68251;DHT22;55066;51.560;4.642;2023-03-23T17:10:16;14.50;91.32
68251;DHT22;55066;51.560;4.642;2023-03-23T17:12:43;14.46;92.34
68251;DHT22;55066;51.560;4.642;2023-03-23T17:15:09;14.43;91.41
68251;DHT22;55066;51.560;4.642;2023-03-23T17:17:41;14.49;91.89
68251;DHT22;55066;51.560;4.642;2023-03-23T17:20:07;14.60;92.79
68251;DHT22;55066;51.560;4.642;2023-03-23T17:22:35;14.59;93.47
68251;DHT22;55066;51.560;4.642;2023-03-23T17:25:00;14.41;91.71
68251;DHT22;55066;51.560;4.642;2023-03-23T17:27:27;14.40;91.55
68251;DHT22;55066;51.560;4.642;2023-03-23T17:29:54;14.43;92.76
68251;DHT22;55066;51.560;4.642;2023-03-23T17:32:21;14.39;92.19
68251;DHT22;55066;51.560;4.642;2023-03-23T17:34:49;14.32;91.95
68251;DHT22;55066;51.560;4.642;2023-03-23T17:37:17;14.25;91.98
68251;DHT22;55066;51.560;4.642;2023-03-23T17:39:43;14.18;92.31
68251;DHT22;55066;51.560;4.642;2023-03-23T17:42:08;14.09;93.59
68251;DHT22;55066;51.560;4.642;2023-03-23T17:44:34;14.15;93.64
68251;DHT22;55066;51.560;4.642;2023-03-23T17:47:00;14.11;93.09
68251;DHT22;55066;51.560;4.642;2023-03-23T17:49:27;13.91;94.51